sensor_id;sensor_type;location;lat;lon;timestamp;P1;durP1;ratioP1;P2;durP2;ratioP2
15218;SDS011;15623;53.986;11.676;2022-08-05T00:02:04;11.30;;;7.05;;
15218;SDS011;15623;53.986;11.676;2022-08-05T00:04:50;15.68;;;6.55;;
15218;SDS011;15623;53.986;11.676;2022-08-05T00:07:33;13.15;;;7.30;;
15218;SDS011;15623;53.986;11.676;2022-08-05T00:13:08;11.57;;;7.22;;
15218;SDS011;15623;53.986;11.676;2022-08-05T00:15:37;22.73;;;8.40;;
15218;SDS011;15623;53.986;11.676;2022-08-05T00:18:05;16.73;;;7.90;;
15218;SDS011;15623;53.986;11.676;2022-08-05T00:20:33;16.25;;;9.07;;
15218;SDS011;15623;53.986;11.676;2022-08-05T00:23:02;18.70;;;9.80;;
15218;SDS011;15623;53.986;11.676;2022-08-05T00:25:30;27.25;;;10.30;;
15218;SDS011;15623;53.986;11.676;2022-08-05T00:27:57;19.85;;;10.40;;
15218;SDS011;15623;53.986;11.676;2022-08-05T00:30:27;25.05;;;10.35;;
15218;SDS011;15623;53.986;11.676;2022-08-05T00:32:54;24.83;;;10.88;;
15218;SDS011;15623;53.986;11.676;2022-08-05T00:35:22;21.08;;;11.18;;
15218;SDS011;15623;53.986;11.676;2022-08-05T00:37:50;25.98;;;11.57;;
15218;SDS011;15623;53.986;11.676;2022-08-05T00:40:17;23.10;;;11.02;;
15218;SDS011;15623;53.986;11.676;2022-08-05T00:42:45;26.23;;;12.35;;
15218;SDS011;15623;53.986;11.676;2022-08-05T00:45:13;30.63;;;12.35;;
15218;SDS011;15623;53.986;11.676;2022-08-05T00:47:42;30.15;;;12.32;;
15218;SDS011;15623;53.986;11.676;2022-08-05T00:50:09;27.35;;;12.80;;
15218;SDS011;15623;53.986;11.676;2022-08-05T00:52:37;33.65;;;13.10;;
15218;SDS011;15623;53.986;11.676;2022-08-05T00:55:05;32.40;;;13.55;;
15218;SDS011;15623;53.986;11.676;2022-08-05T00:57:46;31.92;;;13.90;;
15218;SDS011;15623;53.986;11.676;2022-08-05T01:00:14;27.45;;;12.95;;
15218;SDS011;15623;53.986;11.676;2022-08-05T01:02:43;28.35;;;13.18;;
15218;SDS011;15623;53.986;11.676;2022-08-05T01:05:24;31.17;;;14.23;;
15218;SDS011;15623;53.986;11.676;2022-08-05T01:07:52;35.60;;;14.30;;
15218;SDS011;15623;53.986;11.676;2022-08-05T01:10:21;29.85;;;14.90;;
15218;SDS011;15623;53.986;11.676;2022-08-05T01:12:51;30.17;;;15.00;;
15218;SDS011;15623;53.986;11.676;2022-08-05T01:15:20;32.55;;;14.90;;
15218;SDS011;15623;53.986;11.676;2022-08-05T01:17:56;36.53;;;15.27;;
15218;SDS011;15623;53.986;11.676;2022-08-05T01:20:30;28.67;;;13.60;;
15218;SDS011;15623;53.986;11.676;2022-08-05T01:23:01;27.35;;;13.50;;
15218;SDS011;15623;53.986;11.676;2022-08-05T01:31:20;18.27;;;11.70;;
15218;SDS011;15623;53.986;11.676;2022-08-05T01:33:55;26.02;;;12.50;;
15218;SDS011;15623;53.986;11.676;2022-08-05T01:36:24;16.90;;;10.65;;
15218;SDS011;15623;53.986;11.676;2022-08-05T01:41:46;17.85;;;10.02;;
15218;SDS011;15623;53.986;11.676;2022-08-05T01:44:16;17.20;;;9.70;;
15218;SDS011;15623;53.986;11.676;2022-08-05T01:46:46;15.35;;;10.20;;
15218;SDS011;15623;53.986;11.676;2022-08-05T01:49:15;18.23;;;9.77;;
15218;SDS011;15623;53.986;11.676;2022-08-05T01:51:49;14.98;;;10.02;;
15218;SDS011;15623;53.986;11.676;2022-08-05T01:54:17;18.25;;;9.77;;
15218;SDS011;15623;53.986;11.676;2022-08-05T01:56:46;12.98;;;8.60;;
15218;SDS011;15623;53.986;11.676;2022-08-05T01:59:17;13.13;;;9.05;;
15218;SDS011;15623;53.986;11.676;2022-08-05T02:01:50;19.30;;;10.02;;
15218;SDS011;15623;53.986;11.676;2022-08-05T02:04:20;14.02;;;9.77;;
15218;SDS011;15623;53.986;11.676;2022-08-05T02:06:57;13.35;;;9.60;;
15218;SDS011;15623;53.986;11.676;2022-08-05T02:09:25;16.98;;;9.95;;
15218;SDS011;15623;53.986;11.676;2022-08-05T02:11:54;16.27;;;9.20;;
15218;SDS011;15623;53.986;11.676;2022-08-05T02:14:26;17.80;;;9.43;;
15218;SDS011;15623;53.986;11.676;2022-08-05T02:16:55;17.35;;;9.57;;
15218;SDS011;15623;53.986;11.676;2022-08-05T02:19:29;24.15;;;10.63;;
15218;SDS011;15623;53.986;11.676;2022-08-05T02:21:58;21.05;;;10.05;;
15218;SDS011;15623;53.986;11.676;2022-08-05T02:24:26;20.55;;;10.35;;
15218;SDS011;15623;53.986;11.676;2022-08-05T02:26:55;18.45;;;9.40;;
15218;SDS011;15623;53.986;11.676;2022-08-05T02:29:23;19.48;;;10.23;;
15218;SDS011;15623;53.986;11.676;2022-08-05T02:31:51;19.33;;;9.57;;
15218;SDS011;15623;53.986;11.676;2022-08-05T02:34:20;18.67;;;9.80;;
15218;SDS011;15623;53.986;11.676;2022-08-05T02:36:49;17.75;;;8.68;;
15218;SDS011;15623;53.986;11.676;2022-08-05T02:39:18;12.55;;;8.38;;
15218;SDS011;15623;53.986;11.676;2022-08-05T02:41:46;11.70;;;8.05;;
15218;SDS011;15623;53.986;11.676;2022-08-05T02:44:13;10.70;;;8.02;;
15218;SDS011;15623;53.986;11.676;2022-08-05T02:46:42;17.63;;;8.18;;
15218;SDS011;15623;53.986;11.676;2022-08-05T02:49:12;10.23;;;8.05;;
15218;SDS011;15623;53.986;11.676;2022-08-05T02:51:42;13.40;;;8.02;;
15218;SDS011;15623;53.986;11.676;2022-08-05T02:54:10;11.98;;;8.40;;
15218;SDS011;15623;53.986;11.676;2022-08-05T02:56:40;14.95;;;8.95;;
15218;SDS011;15623;53.986;11.676;2022-08-05T02:59:09;15.73;;;9.27;;
15218;SDS011;15623;53.986;11.676;2022-08-05T03:01:38;16.67;;;9.90;;
15218;SDS011;15623;53.986;11.676;2022-08-05T03:04:07;16.40;;;9.85;;
15218;SDS011;15623;53.986;11.676;2022-08-05T03:06:53;16.38;;;9.90;;
15218;SDS011;15623;53.986;11.676;2022-08-05T03:09:22;15.40;;;9.85;;
15218;SDS011;15623;53.986;11.676;2022-08-05T03:11:51;14.18;;;10.05;;
15218;SDS011;15623;53.986;11.676;2022-08-05T03:14:32;18.52;;;11.05;;
15218;SDS011;15623;53.986;11.676;2022-08-05T03:17:00;18.13;;;11.52;;
15218;SDS011;15623;53.986;11.676;2022-08-05T03:19:27;17.13;;;11.13;;
15218;SDS011;15623;53.986;11.676;2022-08-05T03:21:56;17.42;;;11.40;;
15218;SDS011;15623;53.986;11.676;2022-08-05T03:24:24;21.50;;;11.43;;
15218;SDS011;15623;53.986;11.676;2022-08-05T03:26:54;23.35;;;11.98;;
15218;SDS011;15623;53.986;11.676;2022-08-05T03:29:22;19.15;;;11.50;;
15218;SDS011;15623;53.986;11.676;2022-08-05T03:31:49;20.52;;;11.88;;
15218;SDS011;15623;53.986;11.676;2022-08-05T03:34:17;21.70;;;11.07;;
15218;SDS011;15623;53.986;11.676;2022-08-05T03:36:44;17.42;;;11.00;;
15218;SDS011;15623;53.986;11.676;2022-08-05T03:39:30;18.35;;;10.73;;
15218;SDS011;15623;53.986;11.676;2022-08-05T03:41:57;15.55;;;9.93;;
15218;SDS011;15623;53.986;11.676;2022-08-05T03:44:25;20.77;;;11.18;;
15218;SDS011;15623;53.986;11.676;2022-08-05T03:46:52;15.77;;;10.30;;
15218;SDS011;15623;53.986;11.676;2022-08-05T03:49:27;18.67;;;11.25;;
15218;SDS011;15623;53.986;11.676;2022-08-05T03:51:55;18.15;;;10.65;;
15218;SDS011;15623;53.986;11.676;2022-08-05T03:54:36;17.58;;;11.93;;
15218;SDS011;15623;53.986;11.676;2022-08-05T03:57:11;15.90;;;10.65;;
15218;SDS011;15623;53.986;11.676;2022-08-05T03:59:45;16.38;;;10.70;;
15218;SDS011;15623;53.986;11.676;2022-08-05T04:02:14;23.08;;;11.57;;
15218;SDS011;15623;53.986;11.676;2022-08-05T04:04:41;17.67;;;11.07;;
15218;SDS011;15623;53.986;11.676;2022-08-05T04:07:09;13.63;;;9.95;;
15218;SDS011;15623;53.986;11.676;2022-08-05T04:09:39;14.57;;;9.05;;
15218;SDS011;15623;53.986;11.676;2022-08-05T04:12:07;13.85;;;7.43;;
15218;SDS011;15623;53.986;11.676;2022-08-05T04:14:34;11.15;;;8.00;;
15218;SDS011;15623;53.986;11.676;2022-08-05T04:17:03;10.75;;;8.30;;
15218;SDS011;15623;53.986;11.676;2022-08-05T04:19:30;15.35;;;8.65;;
15218;SDS011;15623;53.986;11.676;2022-08-05T04:22:07;10.90;;;7.95;;
15218;SDS011;15623;53.986;11.676;2022-08-05T04:24:35;13.50;;;9.05;;
15218;SDS011;15623;53.986;11.676;2022-08-05T04:27:04;13.35;;;8.27;;
15218;SDS011;15623;53.986;11.676;2022-08-05T04:29:33;13.55;;;9.10;;
15218;SDS011;15623;53.986;11.676;2022-08-05T04:32:01;13.88;;;9.73;;
15218;SDS011;15623;53.986;11.676;2022-08-05T04:34:42;9.95;;;9.05;;
15218;SDS011;15623;53.986;11.676;2022-08-05T04:37:09;15.23;;;8.73;;
15218;SDS011;15623;53.986;11.676;2022-08-05T04:39:36;10.15;;;8.73;;
15218;SDS011;15623;53.986;11.676;2022-08-05T04:42:06;9.52;;;7.97;;
15218;SDS011;15623;53.986;11.676;2022-08-05T04:44:33;13.65;;;8.95;;
15218;SDS011;15623;53.986;11.676;2022-08-05T04:47:01;14.40;;;9.13;;
15218;SDS011;15623;53.986;11.676;2022-08-05T04:49:28;14.10;;;9.45;;
15218;SDS011;15623;53.986;11.676;2022-08-05T04:51:56;8.95;;;7.65;;
15218;SDS011;15623;53.986;11.676;2022-08-05T04:54:23;8.43;;;7.00;;
15218;SDS011;15623;53.986;11.676;2022-08-05T04:56:51;7.80;;;5.97;;
15218;SDS011;15623;53.986;11.676;2022-08-05T04:59:20;9.10;;;5.60;;
15218;SDS011;15623;53.986;11.676;2022-08-05T05:01:47;6.03;;;4.88;;
15218;SDS011;15623;53.986;11.676;2022-08-05T05:04:15;6.70;;;4.93;;
15218;SDS011;15623;53.986;11.676;2022-08-05T05:06:42;8.27;;;4.72;;
15218;SDS011;15623;53.986;11.676;2022-08-05T05:09:10;8.93;;;4.63;;
15218;SDS011;15623;53.986;11.676;2022-08-05T05:11:57;8.32;;;5.57;;
15218;SDS011;15623;53.986;11.676;2022-08-05T05:14:27;6.22;;;5.47;;
15218;SDS011;15623;53.986;11.676;2022-08-05T05:16:54;5.75;;;5.20;;
15218;SDS011;15623;53.986;11.676;2022-08-05T05:19:22;6.82;;;5.22;;
15218;SDS011;15623;53.986;11.676;2022-08-05T05:21:49;6.72;;;5.00;;
15218;SDS011;15623;53.986;11.676;2022-08-05T05:24:17;9.80;;;5.63;;
15218;SDS011;15623;53.986;11.676;2022-08-05T05:26:45;7.93;;;5.07;;
15218;SDS011;15623;53.986;11.676;2022-08-05T05:29:13;8.85;;;5.22;;
15218;SDS011;15623;53.986;11.676;2022-08-05T05:31:42;9.43;;;4.72;;
15218;SDS011;15623;53.986;11.676;2022-08-05T05:34:10;5.70;;;4.47;;
15218;SDS011;15623;53.986;11.676;2022-08-05T05:36:39;9.13;;;4.90;;
15218;SDS011;15623;53.986;11.676;2022-08-05T05:39:07;5.20;;;4.40;;
15218;SDS011;15623;53.986;11.676;2022-08-05T05:41:35;11.68;;;4.93;;
15218;SDS011;15623;53.986;11.676;2022-08-05T05:44:02;7.13;;;4.63;;
15218;SDS011;15623;53.986;11.676;2022-08-05T05:46:30;7.25;;;4.50;;
15218;SDS011;15623;53.986;11.676;2022-08-05T05:48:59;5.30;;;4.25;;
15218;SDS011;15623;53.986;11.676;2022-08-05T05:51:26;8.57;;;4.47;;
15218;SDS011;15623;53.986;11.676;2022-08-05T05:53:54;8.27;;;4.55;;
15218;SDS011;15623;53.986;11.676;2022-08-05T05:56:23;8.43;;;4.70;;
15218;SDS011;15623;53.986;11.676;2022-08-05T05:58:50;7.10;;;4.30;;
15218;SDS011;15623;53.986;11.676;2022-08-05T06:01:18;5.40;;;4.30;;
15218;SDS011;15623;53.986;11.676;2022-08-05T06:03:46;6.75;;;4.40;;
15218;SDS011;15623;53.986;11.676;2022-08-05T06:06:15;9.90;;;4.40;;
15218;SDS011;15623;53.986;11.676;2022-08-05T06:08:43;6.07;;;4.38;;
15218;SDS011;15623;53.986;11.676;2022-08-05T06:11:10;7.82;;;4.32;;
15218;SDS011;15623;53.986;11.676;2022-08-05T06:13:38;10.88;;;4.30;;
15218;SDS011;15623;53.986;11.676;2022-08-05T06:16:05;6.88;;;4.50;;
15218;SDS011;15623;53.986;11.676;2022-08-05T06:18:32;7.40;;;4.45;;
15218;SDS011;15623;53.986;11.676;2022-08-05T06:21:01;7.95;;;4.10;;
15218;SDS011;15623;53.986;11.676;2022-08-05T06:23:30;8.73;;;4.85;;
15218;SDS011;15623;53.986;11.676;2022-08-05T06:25:57;6.60;;;4.07;;
15218;SDS011;15623;53.986;11.676;2022-08-05T06:28:25;8.40;;;4.40;;
15218;SDS011;15623;53.986;11.676;2022-08-05T06:30:52;7.15;;;4.57;;
15218;SDS011;15623;53.986;11.676;2022-08-05T06:33:20;5.45;;;4.53;;
15218;SDS011;15623;53.986;11.676;2022-08-05T06:35:47;6.75;;;4.22;;
15218;SDS011;15623;53.986;11.676;2022-08-05T06:38:14;6.85;;;4.55;;
15218;SDS011;15623;53.986;11.676;2022-08-05T06:40:43;5.85;;;4.30;;
15218;SDS011;15623;53.986;11.676;2022-08-05T06:43:11;9.20;;;4.78;;
15218;SDS011;15623;53.986;11.676;2022-08-05T06:45:38;9.80;;;4.57;;
15218;SDS011;15623;53.986;11.676;2022-08-05T06:48:06;6.82;;;4.32;;
15218;SDS011;15623;53.986;11.676;2022-08-05T06:50:33;6.97;;;4.22;;
15218;SDS011;15623;53.986;11.676;2022-08-05T06:53:01;12.20;;;4.75;;
15218;SDS011;15623;53.986;11.676;2022-08-05T06:55:28;6.25;;;4.07;;
15218;SDS011;15623;53.986;11.676;2022-08-05T06:57:57;6.13;;;3.83;;
15218;SDS011;15623;53.986;11.676;2022-08-05T07:00:25;8.20;;;4.28;;
15218;SDS011;15623;53.986;11.676;2022-08-05T07:02:52;8.70;;;4.20;;
15218;SDS011;15623;53.986;11.676;2022-08-05T07:05:20;8.35;;;3.70;;
15218;SDS011;15623;53.986;11.676;2022-08-05T07:07:47;11.82;;;4.05;;
15218;SDS011;15623;53.986;11.676;2022-08-05T07:10:15;7.10;;;4.15;;
15218;SDS011;15623;53.986;11.676;2022-08-05T07:12:42;5.90;;;4.00;;
15218;SDS011;15623;53.986;11.676;2022-08-05T07:15:28;7.43;;;3.90;;
15218;SDS011;15623;53.986;11.676;2022-08-05T07:18:13;8.52;;;4.28;;
15218;SDS011;15623;53.986;11.676;2022-08-05T07:20:40;6.50;;;4.15;;
15218;SDS011;15623;53.986;11.676;2022-08-05T07:23:08;7.85;;;4.78;;
15218;SDS011;15623;53.986;11.676;2022-08-05T07:25:36;6.55;;;4.43;;
15218;SDS011;15623;53.986;11.676;2022-08-05T07:28:03;7.25;;;4.30;;
15218;SDS011;15623;53.986;11.676;2022-08-05T07:30:33;6.88;;;4.60;;
15218;SDS011;15623;53.986;11.676;2022-08-05T07:33:01;5.05;;;4.50;;
15218;SDS011;15623;53.986;11.676;2022-08-05T07:35:29;9.73;;;4.65;;
15218;SDS011;15623;53.986;11.676;2022-08-05T07:37:57;5.75;;;4.72;;
15218;SDS011;15623;53.986;11.676;2022-08-05T07:40:24;44.33;;;18.58;;
15218;SDS011;15623;53.986;11.676;2022-08-05T07:42:51;33.25;;;12.52;;
15218;SDS011;15623;53.986;11.676;2022-08-05T07:45:19;31.17;;;16.08;;
15218;SDS011;15623;53.986;11.676;2022-08-05T07:47:48;31.98;;;13.88;;
15218;SDS011;15623;53.986;11.676;2022-08-05T07:50:17;22.20;;;9.80;;
15218;SDS011;15623;53.986;11.676;2022-08-05T07:52:44;14.23;;;8.05;;
15218;SDS011;15623;53.986;11.676;2022-08-05T07:55:12;17.90;;;8.55;;
15218;SDS011;15623;53.986;11.676;2022-08-05T07:57:39;12.23;;;8.07;;
15218;SDS011;15623;53.986;11.676;2022-08-05T08:00:07;7.97;;;5.35;;
15218;SDS011;15623;53.986;11.676;2022-08-05T08:02:35;8.18;;;5.93;;
15218;SDS011;15623;53.986;11.676;2022-08-05T08:05:05;8.32;;;6.15;;
15218;SDS011;15623;53.986;11.676;2022-08-05T08:07:34;6.25;;;4.63;;
15218;SDS011;15623;53.986;11.676;2022-08-05T08:10:01;5.93;;;5.35;;
15218;SDS011;15623;53.986;11.676;2022-08-05T08:12:29;6.50;;;5.15;;
15218;SDS011;15623;53.986;11.676;2022-08-05T08:14:56;9.40;;;6.20;;
15218;SDS011;15623;53.986;11.676;2022-08-05T08:17:24;6.18;;;4.72;;
15218;SDS011;15623;53.986;11.676;2022-08-05T08:19:52;7.90;;;6.07;;
15218;SDS011;15623;53.986;11.676;2022-08-05T08:22:23;8.27;;;5.22;;
15218;SDS011;15623;53.986;11.676;2022-08-05T08:27:56;5.72;;;3.08;;
15218;SDS011;15623;53.986;11.676;2022-08-05T08:30:25;5.72;;;3.83;;
15218;SDS011;15623;53.986;11.676;2022-08-05T08:32:52;4.57;;;3.33;;
15218;SDS011;15623;53.986;11.676;2022-08-05T08:35:20;5.43;;;3.90;;
15218;SDS011;15623;53.986;11.676;2022-08-05T08:37:49;3.30;;;3.00;;
15218;SDS011;15623;53.986;11.676;2022-08-05T08:40:17;5.93;;;3.33;;
15218;SDS011;15623;53.986;11.676;2022-08-05T08:42:45;4.97;;;3.22;;
15218;SDS011;15623;53.986;11.676;2022-08-05T08:45:16;4.55;;;3.83;;
15218;SDS011;15623;53.986;11.676;2022-08-05T08:47:45;6.70;;;3.50;;
15218;SDS011;15623;53.986;11.676;2022-08-05T08:50:13;5.60;;;3.40;;
15218;SDS011;15623;53.986;11.676;2022-08-05T08:52:45;4.90;;;3.38;;
15218;SDS011;15623;53.986;11.676;2022-08-05T08:55:17;6.70;;;3.58;;
15218;SDS011;15623;53.986;11.676;2022-08-05T08:57:45;5.20;;;3.50;;
15218;SDS011;15623;53.986;11.676;2022-08-05T09:00:13;4.72;;;3.60;;
15218;SDS011;15623;53.986;11.676;2022-08-05T09:02:41;5.00;;;3.33;;
15218;SDS011;15623;53.986;11.676;2022-08-05T09:05:11;5.32;;;3.25;;
15218;SDS011;15623;53.986;11.676;2022-08-05T09:07:39;6.45;;;3.33;;
15218;SDS011;15623;53.986;11.676;2022-08-05T09:10:06;3.78;;;3.08;;
15218;SDS011;15623;53.986;11.676;2022-08-05T09:12:37;5.13;;;2.88;;
15218;SDS011;15623;53.986;11.676;2022-08-05T09:15:04;7.47;;;3.33;;
15218;SDS011;15623;53.986;11.676;2022-08-05T09:17:32;5.22;;;2.95;;
15218;SDS011;15623;53.986;11.676;2022-08-05T09:20:00;6.95;;;3.10;;
15218;SDS011;15623;53.986;11.676;2022-08-05T09:22:28;3.80;;;2.90;;
15218;SDS011;15623;53.986;11.676;2022-08-05T09:24:55;3.42;;;3.00;;
15218;SDS011;15623;53.986;11.676;2022-08-05T09:27:30;5.25;;;3.22;;
15218;SDS011;15623;53.986;11.676;2022-08-05T09:30:00;5.32;;;3.80;;
15218;SDS011;15623;53.986;11.676;2022-08-05T09:32:34;4.60;;;4.20;;
15218;SDS011;15623;53.986;11.676;2022-08-05T09:35:08;6.97;;;3.67;;
15218;SDS011;15623;53.986;11.676;2022-08-05T09:37:37;5.65;;;3.58;;
15218;SDS011;15623;53.986;11.676;2022-08-05T09:40:05;3.60;;;3.30;;
15218;SDS011;15623;53.986;11.676;2022-08-05T09:42:39;3.95;;;3.30;;
15218;SDS011;15623;53.986;11.676;2022-08-05T09:45:09;4.40;;;3.50;;
15218;SDS011;15623;53.986;11.676;2022-08-05T09:47:38;4.50;;;3.60;;
15218;SDS011;15623;53.986;11.676;2022-08-05T09:50:07;5.85;;;3.55;;
15218;SDS011;15623;53.986;11.676;2022-08-05T09:52:35;4.80;;;3.55;;
15218;SDS011;15623;53.986;11.676;2022-08-05T09:55:03;8.27;;;4.47;;
15218;SDS011;15623;53.986;11.676;2022-08-05T09:57:32;7.45;;;4.50;;
15218;SDS011;15623;53.986;11.676;2022-08-05T10:00:00;11.68;;;5.20;;
15218;SDS011;15623;53.986;11.676;2022-08-05T10:02:33;8.20;;;4.55;;
15218;SDS011;15623;53.986;11.676;2022-08-05T10:05:08;5.07;;;4.10;;
15218;SDS011;15623;53.986;11.676;2022-08-05T10:07:47;5.03;;;4.40;;
15218;SDS011;15623;53.986;11.676;2022-08-05T10:10:15;5.18;;;4.43;;
15218;SDS011;15623;53.986;11.676;2022-08-05T10:12:43;5.43;;;4.22;;
15218;SDS011;15623;53.986;11.676;2022-08-05T10:15:19;7.22;;;4.63;;
15218;SDS011;15623;53.986;11.676;2022-08-05T10:20:30;5.28;;;4.85;;
15218;SDS011;15623;53.986;11.676;2022-08-05T10:22:58;4.70;;;4.20;;
15218;SDS011;15623;53.986;11.676;2022-08-05T10:25:26;6.60;;;4.32;;
15218;SDS011;15623;53.986;11.676;2022-08-05T10:27:54;8.05;;;4.78;;
15218;SDS011;15623;53.986;11.676;2022-08-05T10:30:21;6.07;;;4.97;;
15218;SDS011;15623;53.986;11.676;2022-08-05T10:32:48;8.48;;;5.38;;
15218;SDS011;15623;53.986;11.676;2022-08-05T10:35:16;5.97;;;5.38;;
15218;SDS011;15623;53.986;11.676;2022-08-05T10:37:46;5.75;;;5.20;;
15218;SDS011;15623;53.986;11.676;2022-08-05T10:40:15;6.30;;;4.68;;
15218;SDS011;15623;53.986;11.676;2022-08-05T10:42:45;5.13;;;4.60;;
15218;SDS011;15623;53.986;11.676;2022-08-05T10:45:14;7.15;;;4.45;;
15218;SDS011;15623;53.986;11.676;2022-08-05T10:47:42;8.82;;;4.47;;
15218;SDS011;15623;53.986;11.676;2022-08-05T10:50:13;4.68;;;4.28;;
15218;SDS011;15623;53.986;11.676;2022-08-05T10:52:43;5.40;;;4.05;;
15218;SDS011;15623;53.986;11.676;2022-08-05T10:55:14;5.47;;;3.95;;
15218;SDS011;15623;53.986;11.676;2022-08-05T10:57:43;4.55;;;4.05;;
15218;SDS011;15623;53.986;11.676;2022-08-05T11:00:11;5.28;;;3.85;;
15218;SDS011;15623;53.986;11.676;2022-08-05T11:05:22;4.63;;;3.97;;
15218;SDS011;15623;53.986;11.676;2022-08-05T11:07:54;4.68;;;4.13;;
15218;SDS011;15623;53.986;11.676;2022-08-05T11:10:24;4.20;;;3.60;;
15218;SDS011;15623;53.986;11.676;2022-08-05T11:12:52;4.13;;;3.72;;
15218;SDS011;15623;53.986;11.676;2022-08-05T11:15:20;5.45;;;4.10;;
15218;SDS011;15623;53.986;11.676;2022-08-05T11:17:48;4.43;;;3.90;;
15218;SDS011;15623;53.986;11.676;2022-08-05T11:20:36;5.22;;;3.80;;
15218;SDS011;15623;53.986;11.676;2022-08-05T11:26:01;4.10;;;3.58;;
15218;SDS011;15623;53.986;11.676;2022-08-05T11:28:42;6.95;;;3.83;;
15218;SDS011;15623;53.986;11.676;2022-08-05T11:31:19;5.78;;;3.97;;
15218;SDS011;15623;53.986;11.676;2022-08-05T11:33:54;6.53;;;3.72;;
15218;SDS011;15623;53.986;11.676;2022-08-05T11:39:04;5.30;;;4.03;;
15218;SDS011;15623;53.986;11.676;2022-08-05T11:41:33;4.68;;;4.18;;
15218;SDS011;15623;53.986;11.676;2022-08-05T11:44:01;4.20;;;3.75;;
15218;SDS011;15623;53.986;11.676;2022-08-05T11:46:32;4.38;;;3.97;;
15218;SDS011;15623;53.986;11.676;2022-08-05T11:49:01;5.38;;;4.00;;
15218;SDS011;15623;53.986;11.676;2022-08-05T11:51:29;4.50;;;4.10;;
15218;SDS011;15623;53.986;11.676;2022-08-05T11:53:57;6.00;;;4.40;;
15218;SDS011;15623;53.986;11.676;2022-08-05T11:59:24;4.60;;;4.00;;
15218;SDS011;15623;53.986;11.676;2022-08-05T12:01:52;7.22;;;4.30;;
15218;SDS011;15623;53.986;11.676;2022-08-05T12:04:20;4.63;;;4.18;;
15218;SDS011;15623;53.986;11.676;2022-08-05T12:06:48;4.55;;;4.03;;
15218;SDS011;15623;53.986;11.676;2022-08-05T12:09:17;4.85;;;3.88;;
15218;SDS011;15623;53.986;11.676;2022-08-05T12:11:44;4.88;;;3.97;;
15218;SDS011;15623;53.986;11.676;2022-08-05T12:14:12;5.32;;;3.92;;
15218;SDS011;15623;53.986;11.676;2022-08-05T12:16:42;4.10;;;3.80;;
15218;SDS011;15623;53.986;11.676;2022-08-05T12:19:12;23.52;;;4.97;;
15218;SDS011;15623;53.986;11.676;2022-08-05T12:21:44;7.43;;;4.18;;
15218;SDS011;15623;53.986;11.676;2022-08-05T12:24:12;6.35;;;4.15;;
15218;SDS011;15623;53.986;11.676;2022-08-05T12:26:44;7.47;;;3.50;;
15218;SDS011;15623;53.986;11.676;2022-08-05T12:29:14;3.80;;;3.40;;
15218;SDS011;15623;53.986;11.676;2022-08-05T12:31:58;5.88;;;3.40;;
15218;SDS011;15623;53.986;11.676;2022-08-05T12:34:27;6.30;;;3.53;;
15218;SDS011;15623;53.986;11.676;2022-08-05T12:36:56;5.55;;;3.45;;
15218;SDS011;15623;53.986;11.676;2022-08-05T12:39:25;8.25;;;3.40;;
15218;SDS011;15623;53.986;11.676;2022-08-05T12:41:56;5.85;;;3.05;;
15218;SDS011;15623;53.986;11.676;2022-08-05T12:44:24;4.68;;;3.15;;
15218;SDS011;15623;53.986;11.676;2022-08-05T12:46:52;4.82;;;3.00;;
15218;SDS011;15623;53.986;11.676;2022-08-05T12:49:24;3.28;;;2.97;;
15218;SDS011;15623;53.986;11.676;2022-08-05T12:51:54;7.13;;;3.10;;
15218;SDS011;15623;53.986;11.676;2022-08-05T12:54:23;4.65;;;2.85;;
15218;SDS011;15623;53.986;11.676;2022-08-05T12:56:51;5.43;;;3.28;;
15218;SDS011;15623;53.986;11.676;2022-08-05T12:59:20;6.47;;;3.10;;
15218;SDS011;15623;53.986;11.676;2022-08-05T13:01:53;4.32;;;2.90;;
15218;SDS011;15623;53.986;11.676;2022-08-05T13:04:37;3.72;;;2.53;;
15218;SDS011;15623;53.986;11.676;2022-08-05T13:07:09;5.95;;;2.55;;
15218;SDS011;15623;53.986;11.676;2022-08-05T13:09:37;3.25;;;2.50;;
15218;SDS011;15623;53.986;11.676;2022-08-05T13:14:56;6.60;;;2.65;;
15218;SDS011;15623;53.986;11.676;2022-08-05T13:17:27;14.75;;;2.78;;
15218;SDS011;15623;53.986;11.676;2022-08-05T13:22:59;9.27;;;2.20;;
15218;SDS011;15623;53.986;11.676;2022-08-05T13:25:40;7.82;;;1.95;;
15218;SDS011;15623;53.986;11.676;2022-08-05T13:28:10;3.13;;;1.70;;
15218;SDS011;15623;53.986;11.676;2022-08-05T13:30:38;2.80;;;1.90;;
15218;SDS011;15623;53.986;11.676;2022-08-05T13:33:20;6.47;;;1.83;;
15218;SDS011;15623;53.986;11.676;2022-08-05T13:35:47;5.35;;;2.00;;
15218;SDS011;15623;53.986;11.676;2022-08-05T13:38:32;8.05;;;2.03;;
15218;SDS011;15623;53.986;11.676;2022-08-05T13:41:27;6.60;;;1.88;;
15218;SDS011;15623;53.986;11.676;2022-08-05T13:47:29;5.60;;;2.05;;
15218;SDS011;15623;53.986;11.676;2022-08-05T13:50:42;4.25;;;2.00;;
15218;SDS011;15623;53.986;11.676;2022-08-05T14:20:23;3.90;;;1.38;;
15218;SDS011;15623;53.986;11.676;2022-08-05T14:25:28;2.63;;;1.63;;
15218;SDS011;15623;53.986;11.676;2022-08-05T14:27:57;2.75;;;1.80;;
15218;SDS011;15623;53.986;11.676;2022-08-05T14:30:25;2.75;;;1.40;;
15218;SDS011;15623;53.986;11.676;2022-08-05T14:32:54;1.85;;;1.23;;
15218;SDS011;15623;53.986;11.676;2022-08-05T14:35:27;1.80;;;1.20;;
15218;SDS011;15623;53.986;11.676;2022-08-05T14:37:59;1.65;;;1.38;;
15218;SDS011;15623;53.986;11.676;2022-08-05T14:43:07;2.55;;;1.40;;
15218;SDS011;15623;53.986;11.676;2022-08-05T14:45:38;3.85;;;1.40;;
15218;SDS011;15623;53.986;11.676;2022-08-05T14:48:17;3.17;;;1.30;;
15218;SDS011;15623;53.986;11.676;2022-08-05T14:50:53;1.80;;;1.13;;
15218;SDS011;15623;53.986;11.676;2022-08-05T14:53:21;4.28;;;1.35;;
15218;SDS011;15623;53.986;11.676;2022-08-05T14:55:49;1.50;;;1.10;;
15218;SDS011;15623;53.986;11.676;2022-08-05T14:58:16;2.78;;;1.30;;
15218;SDS011;15623;53.986;11.676;2022-08-05T15:00:44;1.90;;;1.02;;
15218;SDS011;15623;53.986;11.676;2022-08-05T15:03:13;2.42;;;1.20;;
15218;SDS011;15623;53.986;11.676;2022-08-05T15:05:40;2.53;;;1.15;;
15218;SDS011;15623;53.986;11.676;2022-08-05T15:08:11;1.67;;;1.00;;
15218;SDS011;15623;53.986;11.676;2022-08-05T15:10:38;1.00;;;0.93;;
15218;SDS011;15623;53.986;11.676;2022-08-05T15:13:07;1.15;;;1.05;;
15218;SDS011;15623;53.986;11.676;2022-08-05T15:15:35;1.13;;;1.05;;
15218;SDS011;15623;53.986;11.676;2022-08-05T15:18:02;1.65;;;1.02;;
15218;SDS011;15623;53.986;11.676;2022-08-05T15:20:31;1.02;;;0.90;;
15218;SDS011;15623;53.986;11.676;2022-08-05T15:23:02;1.95;;;1.10;;
15218;SDS011;15623;53.986;11.676;2022-08-05T15:25:31;1.77;;;1.05;;
15218;SDS011;15623;53.986;11.676;2022-08-05T15:27:59;1.17;;;0.85;;
15218;SDS011;15623;53.986;11.676;2022-08-05T15:30:26;1.35;;;0.90;;
15218;SDS011;15623;53.986;11.676;2022-08-05T15:32:56;1.10;;;0.80;;
15218;SDS011;15623;53.986;11.676;2022-08-05T15:35:24;2.60;;;0.85;;
15218;SDS011;15623;53.986;11.676;2022-08-05T15:37:52;1.63;;;0.85;;
15218;SDS011;15623;53.986;11.676;2022-08-05T15:40:20;3.35;;;1.10;;
15218;SDS011;15623;53.986;11.676;2022-08-05T15:42:51;3.85;;;1.13;;
15218;SDS011;15623;53.986;11.676;2022-08-05T15:45:22;2.40;;;0.98;;
15218;SDS011;15623;53.986;11.676;2022-08-05T15:47:49;3.40;;;1.15;;
15218;SDS011;15623;53.986;11.676;2022-08-05T15:50:17;1.83;;;1.02;;
15218;SDS011;15623;53.986;11.676;2022-08-05T15:52:45;3.33;;;0.80;;
15218;SDS011;15623;53.986;11.676;2022-08-05T15:55:12;1.35;;;0.88;;